createdAt,value
2022-11-05T00:00:32.237Z,6.30
2022-11-05T00:03:18.026Z,6.30
2022-11-05T00:06:08.108Z,6.30
2022-11-05T00:08:55.897Z,6.30
2022-11-05T00:11:44.300Z,6.30
2022-11-05T00:16:59.896Z,6.30
2022-11-05T00:19:28.163Z,6.40
2022-11-05T00:24:59.665Z,6.30
2022-11-05T00:27:27.955Z,6.40
2022-11-05T00:29:56.079Z,6.40
2022-11-05T00:32:25.660Z,6.40
2022-11-05T00:39:52.836Z,6.40
2022-11-05T00:42:38.771Z,6.40
2022-11-05T00:45:08.402Z,6.40
2022-11-05T00:47:55.413Z,6.40
2022-11-05T00:50:24.294Z,6.30
2022-11-05T00:53:00.504Z,6.30
2022-11-05T00:55:34.696Z,6.20
2022-11-05T00:58:04.522Z,6.20
2022-11-05T01:00:35.505Z,6.10
2022-11-05T01:03:07.575Z,6.10
2022-11-05T01:05:40.277Z,6.10
2022-11-05T01:08:09.734Z,6.20
2022-11-05T01:10:41.576Z,6.20
2022-11-05T01:13:13.267Z,9.20
2022-11-05T01:15:41.670Z,6.20
2022-11-05T01:18:11.753Z,6.20
2022-11-05T01:20:40.251Z,6.10
2022-11-05T01:23:13.198Z,6.20
2022-11-05T01:25:41.900Z,6.20
2022-11-05T01:28:11.575Z,6.20
2022-11-05T01:30:40.159Z,6.20
2022-11-05T01:33:09.007Z,6.20
2022-11-05T01:35:40.439Z,6.20
2022-11-05T01:38:09.042Z,6.20
2022-11-05T01:40:37.370Z,6.10
2022-11-05T01:43:15.348Z,6.10
2022-11-05T01:45:44.662Z,6.10
2022-11-05T01:50:49.582Z,6.30
2022-11-05T01:53:24.523Z,6.40
2022-11-05T02:05:56.202Z,6.40
2022-11-05T02:08:35.840Z,6.40
2022-11-05T02:18:44.492Z,6.50
2022-11-05T02:34:55.894Z,6.50
2022-11-05T02:37:34.889Z,6.40
2022-11-05T02:40:07.555Z,6.40
2022-11-05T02:42:43.917Z,6.40
2022-11-05T02:45:22.259Z,6.40
2022-11-05T02:47:57.643Z,6.50
2022-11-05T02:50:34.717Z,6.40
2022-11-05T02:53:34.944Z,6.40
2022-11-05T02:56:08.347Z,6.40
2022-11-05T02:58:36.633Z,6.30
2022-11-05T03:03:40.454Z,6.40
2022-11-05T03:06:39.150Z,6.30
2022-11-05T03:10:00.225Z,6.40
2022-11-05T03:12:35.498Z,6.40
2022-11-05T03:15:13.894Z,6.40
2022-11-05T03:17:47.231Z,6.40
2022-11-05T03:20:21.033Z,6.30
2022-11-05T03:22:55.123Z,6.30
2022-11-05T03:25:29.148Z,6.30
2022-11-05T03:28:02.342Z,6.20
2022-11-05T03:30:32.733Z,6.20
2022-11-05T03:33:05.939Z,6.20
2022-11-05T03:35:40.891Z,6.20
2022-11-05T03:38:15.120Z,6.20
2022-11-05T03:40:46.851Z,6.20
2022-11-05T03:43:15.539Z,6.20
2022-11-05T03:45:48.504Z,6.30
2022-11-05T03:48:19.685Z,6.30
2022-11-05T03:50:56.366Z,6.30
2022-11-05T03:53:29.499Z,6.30
2022-11-05T03:56:03.514Z,6.40
2022-11-05T03:58:34.151Z,6.40
2022-11-05T04:01:03.238Z,6.40
2022-11-05T04:03:36.194Z,6.40
2022-11-05T04:06:36.652Z,6.40
2022-11-05T04:09:22.390Z,6.30
2022-11-05T04:12:19.208Z,6.30
2022-11-05T04:15:08.313Z,6.40
2022-11-05T04:21:04.068Z,6.40
2022-11-05T04:24:11.494Z,6.40
2022-11-05T04:26:45.403Z,6.40
2022-11-05T04:29:39.070Z,6.40
2022-11-05T04:37:04.187Z,6.40
2022-11-05T04:39:33.617Z,6.40
2022-11-05T04:46:58.294Z,6.40
2022-11-05T04:51:54.761Z,6.40
2022-11-05T04:54:22.831Z,6.40
2022-11-05T04:56:52.150Z,6.50
2022-11-05T04:59:20.574Z,6.40
2022-11-05T05:01:52.618Z,6.40
2022-11-05T05:04:20.765Z,6.50
2022-11-05T05:09:17.243Z,6.50
2022-11-05T05:11:45.285Z,6.50
2022-11-05T05:24:09.349Z,6.50
2022-11-05T05:29:06.784Z,6.60
2022-11-05T05:31:36.698Z,6.60
2022-11-05T05:34:05.512Z,6.50
2022-11-05T05:36:34.012Z,6.50
2022-11-05T05:39:02.191Z,6.50
2022-11-05T05:46:27.127Z,6.60
2022-11-05T06:01:20.475Z,6.80
2022-11-05T06:08:50.093Z,6.90
2022-11-05T06:23:43.815Z,6.90
2022-11-05T06:26:13.725Z,6.90
2022-11-05T06:28:42.493Z,7.00
2022-11-05T06:58:33.735Z,7.20
2022-11-05T07:01:03.102Z,7.20
2022-11-05T07:03:31.349Z,7.10
2022-11-05T07:06:00.999Z,7.10
2022-11-05T07:08:31.247Z,7.20
2022-11-05T07:13:27.840Z,7.20
2022-11-05T07:15:57.514Z,7.20
2022-11-05T07:18:25.901Z,7.20
2022-11-05T07:25:51.082Z,7.30
2022-11-05T07:28:19.149Z,7.30
2022-11-05T07:30:48.303Z,7.30
2022-11-05T07:33:17.725Z,7.40
2022-11-05T07:35:46.135Z,7.40
2022-11-05T07:38:14.216Z,7.50
2022-11-05T07:40:42.236Z,7.50
2022-11-05T07:43:10.586Z,7.60
2022-11-05T07:45:38.913Z,7.60
2022-11-05T07:48:07.498Z,7.60
2022-11-05T07:50:38.470Z,7.70
2022-11-05T07:53:07.768Z,7.70
2022-11-05T07:55:36.299Z,7.70
2022-11-05T07:58:04.970Z,7.70
2022-11-05T08:00:34.024Z,7.70
2022-11-05T08:03:08.559Z,7.70
2022-11-05T08:05:40.483Z,7.80
2022-11-05T08:08:09.945Z,7.80
2022-11-05T08:10:38.323Z,7.80
2022-11-05T08:13:07.657Z,7.80
2022-11-05T08:15:36.123Z,7.90
2022-11-05T08:18:06.739Z,7.90
2022-11-05T08:20:35.476Z,7.90
2022-11-05T08:23:05.057Z,9.70
2022-11-05T08:25:33.386Z,7.90
2022-11-05T08:28:03.439Z,7.90
2022-11-05T08:30:32.627Z,7.80
2022-11-05T08:33:02.104Z,7.80
2022-11-05T08:35:30.927Z,7.90
2022-11-05T08:38:00.665Z,7.90
2022-11-05T08:40:31.114Z,8.00
2022-11-05T08:45:28.137Z,8.10
2022-11-05T08:48:00.862Z,8.10
2022-11-05T08:52:57.620Z,8.20
2022-11-05T08:55:25.966Z,8.40
2022-11-05T08:57:58.262Z,8.60
2022-11-05T09:05:23.168Z,9.90
2022-11-05T09:10:24.795Z,10.60
2022-11-05T09:12:52.832Z,10.40
2022-11-05T09:15:23.278Z,10.30
2022-11-05T09:20:20.465Z,9.80
2022-11-05T09:22:48.875Z,9.70
2022-11-05T09:25:17.131Z,9.50
2022-11-05T09:27:45.372Z,9.50
2022-11-05T09:30:14.626Z,9.50
2022-11-05T09:32:44.089Z,9.50
2022-11-05T09:35:12.201Z,9.40
2022-11-05T09:37:40.279Z,9.60
2022-11-05T09:40:09.034Z,9.70
2022-11-05T09:42:42.223Z,9.50
2022-11-05T09:45:14.732Z,9.60
2022-11-05T09:47:47.504Z,9.90
2022-11-05T09:50:18.531Z,10.00
2022-11-05T09:52:47.034Z,9.80
2022-11-05T09:55:27.890Z,10.00
2022-11-05T09:57:58.581Z,10.20
2022-11-05T10:00:27.030Z,10.30
2022-11-05T10:02:59.810Z,10.50
2022-11-05T10:05:28.984Z,10.50
2022-11-05T10:08:08.357Z,10.30
2022-11-05T10:10:46.188Z,10.60
2022-11-05T10:13:23.179Z,10.70
2022-11-05T10:15:58.788Z,10.30
2022-11-05T10:18:33.570Z,10.00
2022-11-05T10:21:02.314Z,9.90
2022-11-05T10:23:30.711Z,9.90
2022-11-05T10:26:02.721Z,10.10
2022-11-05T10:28:32.933Z,10.20
2022-11-05T10:31:05.806Z,10.20
2022-11-05T10:33:42.445Z,10.30
2022-11-05T10:36:17.396Z,10.50
2022-11-05T10:41:41.362Z,10.50
2022-11-05T10:44:19.687Z,10.50
2022-11-05T10:46:55.468Z,10.60
2022-11-05T10:49:40.882Z,10.70
2022-11-05T10:52:21.194Z,10.60
2022-11-05T10:54:50.998Z,10.70
2022-11-05T10:57:31.878Z,10.40
2022-11-05T11:00:24.151Z,10.20
2022-11-05T11:02:55.987Z,10.20
2022-11-05T11:05:28.701Z,10.00
2022-11-05T11:08:05.227Z,10.10
2022-11-05T11:10:38.569Z,11.40
2022-11-05T11:13:07.622Z,10.10
2022-11-05T11:15:37.199Z,10.00
2022-11-05T11:18:30.900Z,10.00
2022-11-05T11:21:14.061Z,10.00
2022-11-05T11:23:44.220Z,10.00
2022-11-05T11:26:14.194Z,10.00
2022-11-05T11:28:47.213Z,10.10
2022-11-05T11:31:17.218Z,10.30
2022-11-05T11:33:49.523Z,10.40
2022-11-05T11:36:25.264Z,10.50
2022-11-05T11:39:00.368Z,10.50
2022-11-05T11:41:32.273Z,10.60
2022-11-05T11:44:05.884Z,10.60
2022-11-05T11:46:36.256Z,10.60
2022-11-05T11:49:05.406Z,10.60
2022-11-05T11:51:40.521Z,10.70
2022-11-05T11:54:21.179Z,10.90
2022-11-05T11:56:49.982Z,11.10
2022-11-05T11:59:46.874Z,11.20
2022-11-05T12:02:40.271Z,11.30
2022-11-05T12:05:24.161Z,11.10
2022-11-05T12:07:58.088Z,11.20
2022-11-05T12:10:55.796Z,11.20
2022-11-05T12:13:44.522Z,11.30
2022-11-05T12:16:23.349Z,11.40
2022-11-05T12:19:01.284Z,11.30
2022-11-05T12:21:52.196Z,11.20
2022-11-05T12:24:35.759Z,11.10
2022-11-05T12:27:18.622Z,11.00
2022-11-05T12:29:56.332Z,11.00
2022-11-05T12:32:42.361Z,11.00
2022-11-05T12:35:25.953Z,10.80
2022-11-05T12:38:05.772Z,10.70
2022-11-05T12:40:58.916Z,10.70
2022-11-05T12:43:40.046Z,10.60
2022-11-05T12:46:24.424Z,10.60
2022-11-05T12:49:15.999Z,10.50
2022-11-05T12:51:59.798Z,10.30
2022-11-05T12:54:41.952Z,10.20
2022-11-05T12:57:14.173Z,10.20
2022-11-05T12:59:51.671Z,10.20
2022-11-05T13:02:26.550Z,10.10
2022-11-05T13:04:58.136Z,10.10
2022-11-05T13:07:31.196Z,10.20
2022-11-05T13:10:03.659Z,10.30
2022-11-05T13:12:39.117Z,10.30
2022-11-05T13:15:17.050Z,8.80
2022-11-05T13:17:51.273Z,10.70
2022-11-05T13:20:23.680Z,10.80
2022-11-05T13:22:57.035Z,10.90
2022-11-05T13:25:28.319Z,10.90
2022-11-05T13:28:03.563Z,10.90
2022-11-05T13:30:37.281Z,10.80
2022-11-05T13:33:11.798Z,10.70
2022-11-05T13:35:45.132Z,10.60
2022-11-05T13:38:38.544Z,10.70
2022-11-05T13:41:24.107Z,10.70
2022-11-05T13:44:25.889Z,10.80
2022-11-05T13:47:09.182Z,10.70
2022-11-05T13:49:59.122Z,10.70
2022-11-05T13:52:46.856Z,10.70
2022-11-05T13:55:48.801Z,10.50
2022-11-05T13:58:52.873Z,10.40
2022-11-05T14:01:40.553Z,10.40
2022-11-05T14:04:16.780Z,10.30
2022-11-05T14:06:44.939Z,10.20
2022-11-05T14:09:18.004Z,10.10
2022-11-05T14:11:52.838Z,10.10
2022-11-05T14:14:23.953Z,10.00
2022-11-05T14:16:55.426Z,10.00
2022-11-05T14:19:36.428Z,9.90
2022-11-05T14:22:38.630Z,9.80
2022-11-05T14:25:46.590Z,9.80
2022-11-05T14:28:39.712Z,9.70
2022-11-05T14:31:47.349Z,9.70
2022-11-05T14:34:25.265Z,9.70
2022-11-05T14:37:21.674Z,9.70
2022-11-05T14:42:21.285Z,9.60
2022-11-05T14:45:07.090Z,9.60
2022-11-05T14:47:39.145Z,9.60
2022-11-05T14:50:13.593Z,9.50
2022-11-05T14:52:51.328Z,9.50
2022-11-05T14:55:28.655Z,9.50
2022-11-05T14:58:28.746Z,9.40
2022-11-05T15:00:57.931Z,9.30
2022-11-05T15:03:39.756Z,9.30
2022-11-05T15:06:27.865Z,9.30
2022-11-05T15:09:01.937Z,9.20
2022-11-05T15:11:34.215Z,9.10
2022-11-05T15:14:06.763Z,9.10
2022-11-05T15:16:38.035Z,9.10
2022-11-05T15:19:11.185Z,9.00
2022-11-05T15:21:41.368Z,9.00
2022-11-05T15:24:11.404Z,9.00
2022-11-05T15:26:44.882Z,9.00
2022-11-05T15:29:18.858Z,9.00
2022-11-05T15:31:47.848Z,8.90
2022-11-05T15:34:23.739Z,8.80
2022-11-05T15:36:55.581Z,8.70
2022-11-05T15:39:29.692Z,8.60
2022-11-05T15:41:58.614Z,8.50
2022-11-05T15:44:28.863Z,8.40
2022-11-05T15:47:24.435Z,8.30
2022-11-05T15:49:54.522Z,8.20
2022-11-05T15:52:26.295Z,8.10
2022-11-05T15:55:18.857Z,8.10
2022-11-05T15:57:51.305Z,8.00
2022-11-05T16:00:22.814Z,8.00
2022-11-05T16:02:55.034Z,7.90
2022-11-05T16:05:24.787Z,7.90
2022-11-05T16:07:54.694Z,6.70
2022-11-05T16:10:25.243Z,7.90
2022-11-05T16:15:24.658Z,7.90
2022-11-05T16:17:55.546Z,7.90
2022-11-05T16:20:28.533Z,7.90
2022-11-05T16:22:59.718Z,7.90
2022-11-05T16:25:47.706Z,7.80
2022-11-05T16:28:24.353Z,7.90
2022-11-05T16:30:56.936Z,7.90
2022-11-05T16:33:25.860Z,7.90
2022-11-05T16:35:54.068Z,7.90
2022-11-05T16:38:24.524Z,7.90
2022-11-05T16:43:25.808Z,7.80
2022-11-05T16:45:55.436Z,7.80
2022-11-05T16:53:20.371Z,7.90
2022-11-05T16:55:50.555Z,7.90
2022-11-05T16:58:22.189Z,7.90
2022-11-05T17:00:52.308Z,7.90
2022-11-05T17:03:20.442Z,7.90
2022-11-05T17:05:48.770Z,7.80
2022-11-05T17:08:16.840Z,7.80
2022-11-05T17:13:17.136Z,7.90
2022-11-05T17:15:46.649Z,7.80
2022-11-05T17:18:18.472Z,7.80
2022-11-05T17:20:48.939Z,7.80
2022-11-05T17:23:19.870Z,7.80
2022-11-05T17:25:49.848Z,7.80
2022-11-05T17:28:20.305Z,7.70
2022-11-05T17:30:52.671Z,7.70
2022-11-05T17:33:22.847Z,7.20
2022-11-05T17:35:51.967Z,7.60
2022-11-05T17:38:21.039Z,7.60
2022-11-05T17:40:49.383Z,7.60
2022-11-05T17:43:19.403Z,7.60
2022-11-05T17:45:49.627Z,7.50
2022-11-05T17:48:18.022Z,7.50
2022-11-05T17:50:48.247Z,7.50
2022-11-05T17:53:17.777Z,7.50
2022-11-05T17:55:47.126Z,7.40
2022-11-05T17:58:18.605Z,7.40
2022-11-05T18:00:49.154Z,7.40
2022-11-05T18:03:17.688Z,7.40
2022-11-05T18:08:14.298Z,7.20
2022-11-05T18:13:11.934Z,7.10
2022-11-05T18:15:41.263Z,7.00
2022-11-05T18:18:11.556Z,6.90
2022-11-05T18:20:40.083Z,7.50
2022-11-05T18:23:08.138Z,6.70
2022-11-05T18:25:36.315Z,6.70
2022-11-05T18:28:04.990Z,6.60
2022-11-05T18:30:33.413Z,6.50
2022-11-05T18:33:01.613Z,6.40
2022-11-05T18:35:31.599Z,6.30
2022-11-05T18:38:00.165Z,6.20
2022-11-05T18:42:57.239Z,6.20
2022-11-05T18:52:56.840Z,5.90
2022-11-05T18:55:26.083Z,5.80
2022-11-05T18:57:54.364Z,5.70
2022-11-05T19:00:22.629Z,5.70
2022-11-05T19:02:50.882Z,5.60
2022-11-05T19:05:34.503Z,5.60
2022-11-05T19:08:04.154Z,5.50
2022-11-05T19:10:32.264Z,5.50
2022-11-05T19:20:26.207Z,5.40
2022-11-05T19:22:54.304Z,5.40
2022-11-05T19:25:23.836Z,5.30
2022-11-05T19:37:46.057Z,5.10
2022-11-05T19:42:44.402Z,5.00
2022-11-05T19:48:02.174Z,4.90
2022-11-05T19:52:59.282Z,4.80
2022-11-05T19:55:27.574Z,4.90
2022-11-05T19:57:57.287Z,2.80
2022-11-05T20:10:22.051Z,4.80
2022-11-05T20:12:50.266Z,4.90
2022-11-05T20:15:20.322Z,4.90
2022-11-05T20:17:52.379Z,4.80
2022-11-05T20:20:21.528Z,4.70
2022-11-05T20:30:20.285Z,4.60
2022-11-05T20:45:21.553Z,4.60
2022-11-05T21:00:14.913Z,4.40
2022-11-05T21:02:45.190Z,4.30
2022-11-05T21:05:13.493Z,4.30
2022-11-05T21:07:41.555Z,4.30
2022-11-05T21:10:10.201Z,4.40
2022-11-05T21:12:38.400Z,4.40
2022-11-05T21:15:07.831Z,4.50
2022-11-05T21:17:36.778Z,4.30
2022-11-05T21:20:07.716Z,4.60
2022-11-05T21:22:36.083Z,4.50
2022-11-05T21:27:33.208Z,4.60
2022-11-05T21:30:01.399Z,4.60
2022-11-05T21:32:29.462Z,4.70
2022-11-05T21:34:57.558Z,4.70
2022-11-05T21:37:27.786Z,4.70
2022-11-05T21:39:55.854Z,4.70
2022-11-05T21:42:24.011Z,4.60
2022-11-05T21:44:56.331Z,4.50
2022-11-05T21:47:29.410Z,4.40
2022-11-05T21:49:57.544Z,4.30
2022-11-05T21:52:44.483Z,4.30
2022-11-05T21:55:30.944Z,4.20
2022-11-05T21:58:18.345Z,4.10
2022-11-05T22:00:46.388Z,4.00
2022-11-05T22:03:14.580Z,4.10
2022-11-05T22:08:13.855Z,4.00
2022-11-05T22:13:11.424Z,3.80
2022-11-05T22:15:39.739Z,3.70
2022-11-05T22:18:07.882Z,3.70
2022-11-05T22:20:39.802Z,3.60
2022-11-05T22:23:11.213Z,3.60
2022-11-05T22:25:41.159Z,3.50
2022-11-05T22:30:37.994Z,3.50
2022-11-05T22:33:06.293Z,3.50
2022-11-05T22:38:02.842Z,3.40
2022-11-05T22:40:30.822Z,3.40
2022-11-05T22:43:00.298Z,3.40
2022-11-05T22:47:56.868Z,3.40
2022-11-05T22:50:24.915Z,3.50
2022-11-05T22:52:52.993Z,3.50
2022-11-05T22:55:21.015Z,3.60
2022-11-05T22:57:49.058Z,3.70
2022-11-05T23:00:19.219Z,4.20
2022-11-05T23:05:16.844Z,4.00
2022-11-05T23:08:02.302Z,4.90
2022-11-05T23:10:47.686Z,3.90
2022-11-05T23:13:15.903Z,4.20
2022-11-05T23:16:02.931Z,3.70
2022-11-05T23:18:48.451Z,6.10
2022-11-05T23:21:33.685Z,3.60
2022-11-05T23:24:05.640Z,3.60
2022-11-05T23:26:53.919Z,3.60
2022-11-05T23:29:24.356Z,3.60
2022-11-05T23:32:11.254Z,3.70
2022-11-05T23:34:39.600Z,3.70
2022-11-05T23:37:24.970Z,3.70
2022-11-05T23:39:53.227Z,3.70
2022-11-05T23:42:38.925Z,3.80
2022-11-05T23:45:25.654Z,3.80
2022-11-05T23:48:12.920Z,3.80
2022-11-05T23:50:41.734Z,4.80
2022-11-05T23:53:10.348Z,4.10
2022-11-05T23:55:39.455Z,4.60
2022-11-05T23:58:08.001Z,3.50
